createdAt,value
2022-07-26T00:00:09.265Z,16.6
2022-07-26T00:03:09.537Z,16.6
2022-07-26T00:06:09.140Z,16.5
2022-07-26T00:09:10.793Z,16.4
2022-07-26T00:12:09.235Z,16.4
2022-07-26T00:15:09.243Z,16.4
2022-07-26T00:18:14.539Z,16.3
2022-07-26T00:21:13.816Z,16.2
2022-07-26T00:24:09.256Z,16.1
2022-07-26T00:27:09.170Z,16
2022-07-26T00:30:09.194Z,15.9
2022-07-26T00:33:10.596Z,15.8
2022-07-26T00:36:09.151Z,15.6
2022-07-26T00:39:10.024Z,15.6
2022-07-26T00:42:09.166Z,15.6
2022-07-26T00:45:09.156Z,15.6
2022-07-26T00:48:09.236Z,15.6
2022-07-26T00:51:09.240Z,15.6
2022-07-26T00:54:11.421Z,15.6
2022-07-26T00:57:09.178Z,15.4
2022-07-26T01:00:09.197Z,15.4
2022-07-26T01:03:09.267Z,15.4
2022-07-26T01:06:09.172Z,15.4
2022-07-26T01:09:09.189Z,15.4
2022-07-26T01:12:09.217Z,15.3
2022-07-26T01:15:09.193Z,15.3
2022-07-26T01:18:09.150Z,15.3
2022-07-26T01:21:19.831Z,15.3
2022-07-26T01:24:10.518Z,15.4
2022-07-26T01:27:11.856Z,15.4
2022-07-26T01:30:09.154Z,15.4
2022-07-26T01:33:14.830Z,15.4
2022-07-26T01:36:09.145Z,15.5
2022-07-26T01:39:09.173Z,15.6
2022-07-26T01:42:09.208Z,15.6
2022-07-26T01:45:09.260Z,15.6
2022-07-26T01:48:09.179Z,15.6
2022-07-26T01:51:09.177Z,15.6
2022-07-26T01:54:10.423Z,15.6
2022-07-26T01:57:09.161Z,15.6
2022-07-26T02:00:09.247Z,15.6
2022-07-26T02:03:09.684Z,15.6
2022-07-26T02:06:09.664Z,15.5
2022-07-26T02:09:17.579Z,15.6
2022-07-26T02:12:09.187Z,15.5
2022-07-26T02:15:09.254Z,15.5
2022-07-26T02:18:09.219Z,15.5
2022-07-26T02:21:09.318Z,15.4
2022-07-26T02:24:10.302Z,15.4
2022-07-26T02:27:09.160Z,15.4
2022-07-26T02:30:09.128Z,15.4
2022-07-26T02:33:09.191Z,15.4
2022-07-26T02:36:09.148Z,15.4
2022-07-26T02:39:09.171Z,15.4
2022-07-26T02:42:09.157Z,15.4
2022-07-26T02:45:09.162Z,15.4
2022-07-26T02:48:09.628Z,15.4
2022-07-26T02:51:09.143Z,15.3
2022-07-26T02:54:09.866Z,15.3
2022-07-26T02:57:09.174Z,15.3
2022-07-26T03:00:09.652Z,15.4
2022-07-26T03:03:09.699Z,15.4
2022-07-26T03:06:09.225Z,15.4
2022-07-26T03:09:09.224Z,15.4
2022-07-26T03:12:09.187Z,15.4
2022-07-26T03:15:09.224Z,15.5
2022-07-26T03:18:09.189Z,15.5
2022-07-26T03:21:09.180Z,15.6
2022-07-26T03:24:10.067Z,15.6
2022-07-26T03:27:09.171Z,15.6
2022-07-26T03:30:09.171Z,15.6
2022-07-26T03:33:09.328Z,15.7
2022-07-26T03:36:17.927Z,15.8
2022-07-26T03:39:09.232Z,15.8
2022-07-26T03:42:09.208Z,15.9
2022-07-26T03:45:09.190Z,15.9
2022-07-26T03:48:09.227Z,16
2022-07-26T03:51:09.245Z,16.1
2022-07-26T03:54:10.400Z,16.2
2022-07-26T03:57:09.191Z,16.3
2022-07-26T04:00:09.355Z,16.4
2022-07-26T04:03:09.450Z,16.4
2022-07-26T04:06:10.403Z,16.4
2022-07-26T04:09:12.491Z,16.5
2022-07-26T04:12:09.229Z,16.6
2022-07-26T04:15:09.244Z,16.6
2022-07-26T04:18:09.223Z,16.6
2022-07-26T04:21:09.155Z,16.7
2022-07-26T04:24:10.516Z,16.8
2022-07-26T04:27:09.445Z,16.9
2022-07-26T04:30:16.210Z,16.9
2022-07-26T04:33:09.173Z,17
2022-07-26T04:36:09.176Z,17
2022-07-26T04:39:09.201Z,17
2022-07-26T04:42:09.269Z,16.9
2022-07-26T04:45:17.119Z,16.9
2022-07-26T04:48:09.222Z,17
2022-07-26T04:51:09.220Z,17.5
2022-07-26T04:54:10.448Z,18.5
2022-07-26T04:57:09.796Z,19.4
2022-07-26T05:00:31.346Z,19.9
2022-07-26T05:03:09.715Z,20.6
2022-07-26T05:06:09.268Z,21.1
2022-07-26T05:09:09.210Z,21.5
2022-07-26T05:12:09.610Z,21.7
2022-07-26T05:15:19.961Z,21.8
2022-07-26T05:18:17.889Z,22.2
2022-07-26T05:21:09.158Z,22.2
2022-07-26T05:24:15.043Z,21.8
2022-07-26T05:27:09.186Z,22.2
2022-07-26T05:30:09.486Z,22.2
2022-07-26T05:33:09.236Z,22.4
2022-07-26T05:36:09.220Z,22.6
2022-07-26T05:39:12.835Z,22.6
2022-07-26T05:42:09.225Z,22
2022-07-26T05:45:09.558Z,21.2
2022-07-26T05:48:09.189Z,20.4
2022-07-26T05:51:09.367Z,20.1
2022-07-26T05:54:10.275Z,21.1
2022-07-26T05:57:09.238Z,22.2
2022-07-26T06:00:10.304Z,23.1
2022-07-26T06:03:09.240Z,24.3
2022-07-26T06:06:09.236Z,24.6
2022-07-26T06:09:09.295Z,24.3
2022-07-26T06:12:09.331Z,24.3
2022-07-26T06:15:20.020Z,23.6
2022-07-26T06:18:09.257Z,23.4
2022-07-26T06:21:11.382Z,22.8
2022-07-26T06:24:10.535Z,22.6
2022-07-26T06:27:14.329Z,23.1
2022-07-26T06:30:09.269Z,22.9
2022-07-26T06:33:09.215Z,23.6
2022-07-26T06:36:11.145Z,23.8
2022-07-26T06:39:09.235Z,23.6
2022-07-26T06:42:09.262Z,23.1
2022-07-26T06:45:09.352Z,22.6
2022-07-26T06:48:09.216Z,22
2022-07-26T06:51:09.253Z,21.4
2022-07-26T06:54:11.132Z,21
2022-07-26T06:57:09.257Z,20.7
2022-07-26T07:00:09.815Z,20.6
2022-07-26T07:03:09.521Z,20.4
2022-07-26T07:06:09.254Z,20.3
2022-07-26T07:09:14.912Z,20.3
2022-07-26T07:12:18.838Z,20.5
2022-07-26T07:15:09.292Z,20.9
2022-07-26T07:18:09.277Z,21.2
2022-07-26T07:21:09.279Z,21.2
2022-07-26T07:24:11.837Z,21.6
2022-07-26T07:27:12.471Z,23.1
2022-07-26T07:30:11.892Z,23
2022-07-26T07:33:25.891Z,22.4
2022-07-26T07:36:09.236Z,22.1
2022-07-26T07:39:24.215Z,22.1
2022-07-26T07:42:09.213Z,22.1
2022-07-26T07:45:09.225Z,21.8
2022-07-26T07:48:09.223Z,22.1
2022-07-26T07:51:10.086Z,22.1
2022-07-26T07:54:14.825Z,22.1
2022-07-26T07:57:09.277Z,21.9
2022-07-26T08:00:14.094Z,22.2
2022-07-26T08:03:10.327Z,23.5
2022-07-26T08:06:10.368Z,24.6
2022-07-26T08:09:15.669Z,24.1
2022-07-26T08:12:12.277Z,23.3
2022-07-26T08:15:21.724Z,23.1
2022-07-26T08:18:16.333Z,22.6
2022-07-26T08:21:10.864Z,22
2022-07-26T08:24:09.321Z,23.4
2022-07-26T08:27:09.241Z,24.9
2022-07-26T08:30:09.358Z,24.9
2022-07-26T08:33:09.223Z,25.4
2022-07-26T08:36:09.262Z,26.4
2022-07-26T08:39:10.320Z,26.7
2022-07-26T08:42:09.195Z,26.5
2022-07-26T08:45:09.274Z,25.3
2022-07-26T08:48:27.036Z,24.4
2022-07-26T08:51:15.317Z,23.9
2022-07-26T08:54:14.934Z,25.3
2022-07-26T08:57:09.748Z,25.9
2022-07-26T09:00:09.265Z,26.3
2022-07-26T09:03:09.261Z,26.4
2022-07-26T09:06:09.247Z,26.8
2022-07-26T09:09:10.469Z,27.2
2022-07-26T09:12:09.266Z,27.4
2022-07-26T09:15:09.323Z,27.6
2022-07-26T09:18:09.979Z,27.8
2022-07-26T09:21:09.249Z,26.2
2022-07-26T09:24:09.253Z,24.8
2022-07-26T09:27:09.545Z,24.1
2022-07-26T09:30:09.351Z,24.8
2022-07-26T09:33:09.269Z,25.5
2022-07-26T09:36:09.270Z,25.4
2022-07-26T09:39:10.034Z,25.1
2022-07-26T09:42:37.808Z,26.1
2022-07-26T09:45:09.183Z,27.2
2022-07-26T09:48:09.287Z,27.4
2022-07-26T09:51:09.212Z,25.9
2022-07-26T09:54:09.783Z,23.9
2022-07-26T09:57:09.757Z,22.1
2022-07-26T10:00:12.198Z,20.8
2022-07-26T10:03:09.623Z,20.2
2022-07-26T10:06:09.191Z,19.9
2022-07-26T10:09:09.363Z,19.8
2022-07-26T10:12:09.264Z,19.8
2022-07-26T10:15:09.238Z,19.8
2022-07-26T10:18:18.866Z,20.9
2022-07-26T10:21:09.233Z,22.6
2022-07-26T10:24:09.692Z,23.7
2022-07-26T10:27:09.236Z,23.7
2022-07-26T10:30:09.298Z,22.6
2022-07-26T10:33:09.496Z,21.2
2022-07-26T10:36:09.224Z,20.6
2022-07-26T10:39:09.213Z,20.3
2022-07-26T10:42:09.243Z,20.4
2022-07-26T10:45:09.256Z,20.4
2022-07-26T10:48:09.236Z,20.5
2022-07-26T10:51:15.159Z,20.5
2022-07-26T10:54:09.844Z,20.6
2022-07-26T10:57:09.193Z,20.8
2022-07-26T11:00:09.422Z,21.6
2022-07-26T11:03:09.914Z,21.8
2022-07-26T11:06:09.206Z,21.5
2022-07-26T11:09:09.214Z,21.3
2022-07-26T11:12:09.213Z,21.2
2022-07-26T11:15:11.001Z,21.2
2022-07-26T11:18:09.239Z,21.3
2022-07-26T11:21:09.172Z,21.2
2022-07-26T11:24:09.789Z,21.1
2022-07-26T11:27:09.197Z,21.1
2022-07-26T11:30:10.723Z,20.9
2022-07-26T11:33:09.268Z,20.6
2022-07-26T11:36:09.254Z,20.4
2022-07-26T11:39:09.892Z,20.2
2022-07-26T11:42:09.278Z,20.3
2022-07-26T11:45:09.222Z,20.4
2022-07-26T11:48:09.194Z,20.6
2022-07-26T11:51:15.660Z,20.8
2022-07-26T11:54:09.713Z,21
2022-07-26T11:57:10.363Z,21.6
2022-07-26T12:00:10.531Z,21.9
2022-07-26T12:03:10.961Z,22.8
2022-07-26T12:06:09.320Z,23.6
2022-07-26T12:09:09.275Z,23.7
2022-07-26T12:12:09.276Z,23.2
2022-07-26T12:15:11.296Z,23.1
2022-07-26T12:18:09.264Z,23.3
2022-07-26T12:21:15.825Z,23.4
2022-07-26T12:24:09.684Z,24.8
2022-07-26T12:27:09.358Z,24.4
2022-07-26T12:30:09.507Z,23.7
2022-07-26T12:33:09.288Z,23
2022-07-26T12:36:09.250Z,23.1
2022-07-26T12:39:09.988Z,22.8
2022-07-26T12:42:09.255Z,22.7
2022-07-26T12:45:09.268Z,22.7
2022-07-26T12:48:09.239Z,22.4
2022-07-26T12:51:09.269Z,22.4
2022-07-26T12:54:09.667Z,22.1
2022-07-26T12:57:09.254Z,22.1
2022-07-26T13:00:09.363Z,21.8
2022-07-26T13:03:09.223Z,21.8
2022-07-26T13:06:09.274Z,21.6
2022-07-26T13:09:09.256Z,21.5
2022-07-26T13:12:09.251Z,21.4
2022-07-26T13:15:09.449Z,21.6
2022-07-26T13:18:09.510Z,21.8
2022-07-26T13:21:09.270Z,21.9
2022-07-26T13:24:15.416Z,22.4
2022-07-26T13:27:10.030Z,22.8
2022-07-26T13:30:09.531Z,22.9
2022-07-26T13:33:09.206Z,22.9
2022-07-26T13:36:09.277Z,23.2
2022-07-26T13:39:09.251Z,23.4
2022-07-26T13:42:09.232Z,23.3
2022-07-26T13:45:09.327Z,23.1
2022-07-26T13:48:09.415Z,23
2022-07-26T13:51:09.246Z,23.1
2022-07-26T13:54:09.749Z,23.4
2022-07-26T13:57:09.222Z,23.6
2022-07-26T14:00:09.319Z,23
2022-07-26T14:03:10.290Z,22.6
2022-07-26T14:06:09.319Z,22
2022-07-26T14:09:15.250Z,21.3
2022-07-26T14:12:10.730Z,20.9
2022-07-26T14:15:24.840Z,20.6
2022-07-26T14:18:09.250Z,20.4
2022-07-26T14:21:15.166Z,20.2
2022-07-26T14:24:09.738Z,20.4
2022-07-26T14:27:12.569Z,20.6
2022-07-26T14:30:09.334Z,20.8
2022-07-26T14:33:09.234Z,20.9
2022-07-26T14:36:09.317Z,21
2022-07-26T14:39:09.231Z,21
2022-07-26T14:42:09.237Z,21.1
2022-07-26T14:45:09.223Z,21.2
2022-07-26T14:48:09.314Z,21.4
2022-07-26T14:51:18.832Z,21.6
2022-07-26T14:54:12.085Z,21.7
2022-07-26T14:57:09.220Z,21.9
2022-07-26T15:00:09.343Z,21.8
2022-07-26T15:03:09.204Z,21.7
2022-07-26T15:06:09.270Z,21.8
2022-07-26T15:09:09.892Z,21.6
2022-07-26T15:12:09.290Z,21.4
2022-07-26T15:15:09.263Z,21.2
2022-07-26T15:18:09.258Z,21.1
2022-07-26T15:21:09.228Z,20.8
2022-07-26T15:24:09.780Z,20.6
2022-07-26T15:27:09.271Z,20.6
2022-07-26T15:30:26.019Z,20.5
2022-07-26T15:33:09.376Z,20.4
2022-07-26T15:36:14.764Z,20.5
2022-07-26T15:39:26.173Z,20.6
2022-07-26T15:42:20.853Z,20.7
2022-07-26T15:45:18.024Z,20.9
2022-07-26T15:48:29.319Z,21
2022-07-26T15:51:09.217Z,21.2
2022-07-26T15:54:09.562Z,21.4
2022-07-26T15:57:09.289Z,21.4
2022-07-26T16:00:19.716Z,21.6
2022-07-26T16:03:09.238Z,21.6
2022-07-26T16:06:14.740Z,21.8
2022-07-26T16:09:27.358Z,21.5
2022-07-26T16:12:14.999Z,21.3
2022-07-26T16:15:09.257Z,21.1
2022-07-26T16:18:15.242Z,20.9
2022-07-26T16:21:09.199Z,20.8
2022-07-26T16:24:16.101Z,20.7
2022-07-26T16:27:09.224Z,20.6
2022-07-26T16:30:09.345Z,20.6
2022-07-26T16:33:09.191Z,20.6
2022-07-26T16:36:15.177Z,20.5
2022-07-26T16:39:09.490Z,20.5
2022-07-26T16:42:15.855Z,20.4
2022-07-26T16:45:09.250Z,20.4
2022-07-26T16:48:09.233Z,20.3
2022-07-26T16:51:10.004Z,20.3
2022-07-26T16:54:09.257Z,20.3
2022-07-26T16:57:09.170Z,20.3
2022-07-26T17:00:09.290Z,20.3
2022-07-26T17:03:09.212Z,20.3
2022-07-26T17:06:15.406Z,20.4
2022-07-26T17:09:17.318Z,20.3
2022-07-26T17:12:15.408Z,20.3
2022-07-26T17:15:09.260Z,20.1
2022-07-26T17:18:09.199Z,19.9
2022-07-26T17:21:09.191Z,19.8
2022-07-26T17:24:14.456Z,19.8
2022-07-26T17:27:09.209Z,19.8
2022-07-26T17:30:15.730Z,19.9
2022-07-26T17:33:09.692Z,19.9
2022-07-26T17:36:17.102Z,19.9
2022-07-26T17:39:17.881Z,19.8
2022-07-26T17:42:09.239Z,19.8
2022-07-26T17:45:09.216Z,19.8
2022-07-26T17:48:15.072Z,19.8
2022-07-26T17:51:09.232Z,19.8
2022-07-26T17:54:09.244Z,19.6
2022-07-26T17:57:09.224Z,19.6
2022-07-26T18:00:15.346Z,19.4
2022-07-26T18:03:09.274Z,19.3
2022-07-26T18:06:09.904Z,19.2
2022-07-26T18:09:09.832Z,19.1
2022-07-26T18:12:09.267Z,19.1
2022-07-26T18:15:09.237Z,19
2022-07-26T18:18:10.902Z,18.9
2022-07-26T18:21:09.243Z,18.9
2022-07-26T18:24:26.327Z,18.9
2022-07-26T18:27:09.218Z,18.8
2022-07-26T18:30:09.250Z,18.8
2022-07-26T18:33:09.288Z,18.7
2022-07-26T18:36:09.211Z,18.6
2022-07-26T18:39:09.758Z,18.6
2022-07-26T18:42:09.279Z,18.6
2022-07-26T18:45:09.365Z,18.5
2022-07-26T18:48:10.951Z,18.5
2022-07-26T18:51:11.723Z,18.4
2022-07-26T18:54:09.249Z,18.4
2022-07-26T18:57:09.220Z,18.3
2022-07-26T19:00:09.235Z,18.2
2022-07-26T19:03:09.351Z,18.1
2022-07-26T19:06:09.265Z,18
2022-07-26T19:09:11.059Z,17.9
2022-07-26T19:12:09.202Z,17.8
2022-07-26T19:15:10.651Z,17.7
2022-07-26T19:18:09.590Z,17.6
2022-07-26T19:21:12.128Z,17.4
2022-07-26T19:24:09.190Z,17.4
2022-07-26T19:27:09.185Z,17.2
2022-07-26T19:30:09.205Z,17.2
2022-07-26T19:33:09.153Z,17.1
2022-07-26T19:36:09.162Z,17
2022-07-26T19:39:09.458Z,17
2022-07-26T19:42:10.961Z,16.9
2022-07-26T19:45:09.461Z,16.9
2022-07-26T19:48:09.263Z,16.9
2022-07-26T19:51:09.236Z,16.9
2022-07-26T19:54:09.208Z,16.9
2022-07-26T19:57:09.275Z,16.9
2022-07-26T20:00:09.307Z,16.9
2022-07-26T20:03:12.449Z,16.9
2022-07-26T20:06:09.204Z,16.9
2022-07-26T20:09:09.509Z,16.8
2022-07-26T20:12:09.207Z,16.9
2022-07-26T20:15:09.232Z,16.9
2022-07-26T20:18:09.233Z,17
2022-07-26T20:21:09.604Z,17.1
2022-07-26T20:24:09.278Z,17
2022-07-26T20:27:09.248Z,16.9
2022-07-26T20:30:10.264Z,16.9
2022-07-26T20:33:09.199Z,16.9
2022-07-26T20:36:09.224Z,16.9
2022-07-26T20:39:09.586Z,16.9
2022-07-26T20:42:23.678Z,16.9
2022-07-26T20:45:15.627Z,16.9
2022-07-26T20:48:09.230Z,16.9
2022-07-26T20:51:17.466Z,16.8
2022-07-26T20:54:09.272Z,16.8
2022-07-26T20:57:12.931Z,16.8
2022-07-26T21:00:09.263Z,16.8
2022-07-26T21:03:09.648Z,16.8
2022-07-26T21:06:09.355Z,16.8
2022-07-26T21:09:18.695Z,16.8
2022-07-26T21:12:09.275Z,16.8
2022-07-26T21:15:09.313Z,16.7
2022-07-26T21:18:14.456Z,16.6
2022-07-26T21:21:09.270Z,16.5
2022-07-26T21:24:09.277Z,16.5
2022-07-26T21:27:09.291Z,16.5
2022-07-26T21:30:09.302Z,16.5
2022-07-26T21:33:11.817Z,16.5
2022-07-26T21:36:09.229Z,16.6
2022-07-26T21:39:09.811Z,16.6
2022-07-26T21:42:09.273Z,16.6
2022-07-26T21:45:09.201Z,16.6
2022-07-26T21:48:09.292Z,16.6
2022-07-26T21:51:09.515Z,16.6
2022-07-26T21:54:11.080Z,16.6
2022-07-26T21:57:09.249Z,16.6
2022-07-26T22:00:11.718Z,16.4
2022-07-26T22:03:09.719Z,16.4
2022-07-26T22:06:09.242Z,16.4
2022-07-26T22:09:09.915Z,16.3
2022-07-26T22:12:09.214Z,16.3
2022-07-26T22:15:09.237Z,16.2
2022-07-26T22:18:11.810Z,16.2
2022-07-26T22:21:09.175Z,16.1
2022-07-26T22:24:09.245Z,16.1
2022-07-26T22:27:09.305Z,16.1
2022-07-26T22:30:09.257Z,16.1
2022-07-26T22:33:12.169Z,16.1
2022-07-26T22:36:09.254Z,16
2022-07-26T22:39:14.079Z,15.9
2022-07-26T22:42:24.884Z,15.9
2022-07-26T22:45:16.429Z,15.9
2022-07-26T22:48:09.232Z,15.9
2022-07-26T22:51:09.164Z,15.9
2022-07-26T22:54:09.235Z,15.8
2022-07-26T22:57:09.174Z,15.8
2022-07-26T23:00:09.283Z,15.8
2022-07-26T23:03:24.315Z,15.7
2022-07-26T23:06:33.439Z,15.7
2022-07-26T23:09:09.821Z,15.6
2022-07-26T23:12:09.236Z,15.6
2022-07-26T23:15:11.937Z,15.5
2022-07-26T23:18:09.251Z,15.5
2022-07-26T23:21:10.607Z,15.4
2022-07-26T23:24:09.222Z,15.4
2022-07-26T23:27:09.259Z,15.4
2022-07-26T23:30:09.206Z,15.4
2022-07-26T23:33:09.222Z,15.4
2022-07-26T23:36:09.215Z,15.4
2022-07-26T23:39:09.660Z,15.4
2022-07-26T23:42:09.233Z,15.3
2022-07-26T23:45:09.315Z,15.2
2022-07-26T23:48:09.226Z,15.1
2022-07-26T23:51:09.312Z,14.9
2022-07-26T23:54:09.262Z,14.8
2022-07-26T23:57:09.219Z,14.7
